createdAt,value
2019-03-29T00:04:24.891Z,8.65
2019-03-29T00:09:31.487Z,8.67
2019-03-29T00:14:37.580Z,8.61
2019-03-29T00:19:43.274Z,8.62
2019-03-29T00:24:48.873Z,8.65
2019-03-29T00:29:55.284Z,8.61
2019-03-29T00:35:01.701Z,8.58
2019-03-29T00:40:07.832Z,8.49
2019-03-29T00:45:14.952Z,8.51
2019-03-29T00:50:20.771Z,8.47
2019-03-29T00:55:26.501Z,8.43
2019-03-29T01:00:33.660Z,8.44
2019-03-29T01:05:39.492Z,8.42
2019-03-29T01:10:45.543Z,8.41
2019-03-29T01:15:51.654Z,8.38
2019-03-29T01:20:57.356Z,8.37
2019-03-29T01:26:03.107Z,8.36
2019-03-29T01:31:09.230Z,8.36
2019-03-29T01:36:14.897Z,8.37
2019-03-29T01:41:20.559Z,8.39
2019-03-29T01:46:26.072Z,8.36
2019-03-29T01:51:31.909Z,8.36
2019-03-29T01:56:37.677Z,8.35
2019-03-29T02:01:43.790Z,8.38
2019-03-29T02:06:49.569Z,8.38
2019-03-29T02:11:55.312Z,8.42
2019-03-29T02:17:01.841Z,8.44
2019-03-29T02:22:09.079Z,8.45
2019-03-29T02:27:15.039Z,8.42
2019-03-29T02:32:20.569Z,8.41
2019-03-29T02:37:26.962Z,8.42
2019-03-29T02:42:33.496Z,8.42
2019-03-29T02:47:39.170Z,8.40
2019-03-29T02:52:45.167Z,8.39
2019-03-29T02:57:52.259Z,8.38
2019-03-29T03:02:58.601Z,8.37
2019-03-29T03:08:04.392Z,8.36
2019-03-29T03:13:10.546Z,8.38
2019-03-29T03:18:16.240Z,8.32
2019-03-29T03:23:24.026Z,8.33
2019-03-29T03:28:30.029Z,8.30
2019-03-29T03:33:36.497Z,8.27
2019-03-29T03:38:42.244Z,8.30
2019-03-29T03:43:48.398Z,8.30
2019-03-29T03:48:54.160Z,8.27
2019-03-29T03:54:00.471Z,8.22
2019-03-29T03:59:06.643Z,8.25
2019-03-29T04:04:13.579Z,8.22
2019-03-29T04:09:19.589Z,8.24
2019-03-29T04:14:25.586Z,8.18
2019-03-29T04:19:31.544Z,8.16
2019-03-29T04:24:37.344Z,8.14
2019-03-29T04:29:43.797Z,8.11
2019-03-29T04:34:49.837Z,8.07
2019-03-29T04:40:06.853Z,8.10
2019-03-29T04:45:03.409Z,8.06
2019-03-29T04:50:09.821Z,8.11
2019-03-29T04:55:15.524Z,8.10
2019-03-29T05:00:22.122Z,8.06
2019-03-29T05:05:27.975Z,8.09
2019-03-29T05:10:34.147Z,8.09
2019-03-29T05:15:39.864Z,8.11
2019-03-29T05:20:45.576Z,8.15
2019-03-29T05:25:51.351Z,8.15
2019-03-29T05:30:57.126Z,8.14
2019-03-29T05:36:03.240Z,8.05
2019-03-29T05:41:09.596Z,8.02
2019-03-29T05:46:15.717Z,8.08
2019-03-29T05:51:21.425Z,8.11
2019-03-29T05:56:27.229Z,8.11
2019-03-29T06:01:32.926Z,8.14
2019-03-29T06:06:39.056Z,8.22
2019-03-29T06:11:44.842Z,8.23
2019-03-29T06:16:50.559Z,8.23
2019-03-29T06:21:56.343Z,8.31
2019-03-29T06:27:02.440Z,8.40
2019-03-29T06:32:08.322Z,8.44
2019-03-29T06:37:17.432Z,8.48
2019-03-29T06:42:23.172Z,8.60
2019-03-29T06:47:29.687Z,8.68
2019-03-29T06:52:35.576Z,8.78
2019-03-29T06:57:41.280Z,8.85
2019-03-29T07:02:46.991Z,8.91
2019-03-29T07:07:52.777Z,9.01
2019-03-29T07:12:58.640Z,9.05
2019-03-29T07:18:04.341Z,9.23
2019-03-29T07:23:10.373Z,9.37
2019-03-29T07:28:16.173Z,9.46
2019-03-29T07:33:21.880Z,9.58
2019-03-29T07:38:28.637Z,9.68
2019-03-29T07:43:34.997Z,9.76
2019-03-29T07:48:41.775Z,9.91
2019-03-29T07:53:48.472Z,10.02
2019-03-29T07:58:54.762Z,10.09
2019-03-29T08:04:00.650Z,10.16
2019-03-29T08:09:21.318Z,10.25
2019-03-29T08:14:15.413Z,10.34
2019-03-29T08:19:21.319Z,10.55
2019-03-29T08:24:27.693Z,10.70
2019-03-29T08:29:33.576Z,10.80
2019-03-29T08:34:39.722Z,10.98
2019-03-29T08:39:45.513Z,11.09
2019-03-29T08:44:51.301Z,11.19
2019-03-29T08:49:57.079Z,11.35
2019-03-29T08:55:02.877Z,11.46
2019-03-29T09:00:09.931Z,11.49
2019-03-29T09:05:15.896Z,11.39
2019-03-29T09:10:26.129Z,11.35
2019-03-29T09:15:32.295Z,11.54
2019-03-29T09:20:40.416Z,11.70
2019-03-29T09:25:46.680Z,11.88
2019-03-29T09:30:56.400Z,11.91
2019-03-29T09:36:00.636Z,12.08
2019-03-29T09:41:06.751Z,12.09
2019-03-29T09:46:12.699Z,12.07
2019-03-29T09:51:18.500Z,11.89
2019-03-29T09:56:38.097Z,12.00
2019-03-29T10:01:32.373Z,12.12
2019-03-29T10:06:39.604Z,12.10
2019-03-29T10:11:45.522Z,12.10
2019-03-29T10:16:52.796Z,12.34
2019-03-29T10:21:59.538Z,12.40
2019-03-29T10:27:05.322Z,12.30
2019-03-29T10:32:11.855Z,12.23
2019-03-29T10:37:18.050Z,12.34
2019-03-29T10:42:23.848Z,12.39
2019-03-29T10:47:43.288Z,12.48
2019-03-29T10:52:37.045Z,12.55
2019-03-29T10:57:42.822Z,12.59
2019-03-29T11:02:49.721Z,12.54
2019-03-29T11:07:55.523Z,12.53
2019-03-29T11:13:12.569Z,12.73
2019-03-29T11:18:09.421Z,12.79
2019-03-29T11:23:15.319Z,12.81
2019-03-29T11:28:21.101Z,12.73
2019-03-29T11:33:27.338Z,12.81
2019-03-29T11:38:33.115Z,12.95
2019-03-29T11:43:39.029Z,13.11
2019-03-29T11:48:44.811Z,12.98
2019-03-29T11:53:52.318Z,13.00
2019-03-29T11:58:58.110Z,13.03
2019-03-29T12:04:05.282Z,13.15
2019-03-29T12:09:11.062Z,13.01
2019-03-29T12:14:17.154Z,13.29
2019-03-29T12:19:23.035Z,13.29
2019-03-29T12:24:29.166Z,13.39
2019-03-29T12:29:35.084Z,13.22
2019-03-29T12:34:40.961Z,13.45
2019-03-29T12:39:46.839Z,13.45
2019-03-29T12:44:52.638Z,13.55
2019-03-29T12:49:58.428Z,13.18
2019-03-29T12:55:04.413Z,13.26
2019-03-29T13:00:10.710Z,13.50
2019-03-29T13:05:17.554Z,13.85
2019-03-29T13:10:23.433Z,13.93
2019-03-29T13:15:30.261Z,14.30
2019-03-29T13:20:36.024Z,14.84
2019-03-29T13:25:41.795Z,14.52
2019-03-29T13:30:47.649Z,15.14
2019-03-29T13:35:53.674Z,15.31
2019-03-29T13:40:59.476Z,15.67
2019-03-29T13:46:05.378Z,15.87
2019-03-29T13:51:11.455Z,16.14
2019-03-29T13:56:17.232Z,16.33
2019-03-29T14:01:23.312Z,16.64
2019-03-29T14:06:29.266Z,17.06
2019-03-29T14:11:35.056Z,16.91
2019-03-29T14:16:40.862Z,16.79
2019-03-29T14:21:46.983Z,15.96
2019-03-29T14:26:52.842Z,17.04
2019-03-29T14:31:58.612Z,17.59
2019-03-29T14:37:04.408Z,17.77
2019-03-29T14:42:12.780Z,17.82
2019-03-29T14:47:18.861Z,17.61
2019-03-29T14:52:24.634Z,18.13
2019-03-29T14:57:30.417Z,17.48
2019-03-29T15:02:36.184Z,16.99
2019-03-29T15:07:43.197Z,17.74
2019-03-29T15:12:50.058Z,18.14
2019-03-29T15:17:56.232Z,18.52
2019-03-29T15:23:02.036Z,18.73
2019-03-29T15:28:07.933Z,18.63
2019-03-29T15:33:13.814Z,18.60
2019-03-29T15:38:19.664Z,19.12
2019-03-29T15:43:25.444Z,18.65
2019-03-29T15:48:31.301Z,18.80
2019-03-29T15:53:37.395Z,18.91
2019-03-29T15:58:43.267Z,18.91
2019-03-29T16:03:49.142Z,19.06
2019-03-29T16:08:55.021Z,19.16
2019-03-29T16:14:00.874Z,18.68
2019-03-29T16:19:06.906Z,18.68
2019-03-29T16:24:12.783Z,18.30
2019-03-29T16:29:19.658Z,18.74
2019-03-29T16:34:25.456Z,18.70
2019-03-29T16:39:31.250Z,18.11
2019-03-29T16:44:37.022Z,18.52
2019-03-29T16:49:42.929Z,18.13
2019-03-29T16:54:48.697Z,18.05
2019-03-29T16:59:57.083Z,17.79
2019-03-29T17:05:03.228Z,17.60
2019-03-29T17:10:09.405Z,17.39
2019-03-29T17:15:15.935Z,17.38
2019-03-29T17:20:22.027Z,17.21
2019-03-29T17:25:28.505Z,16.88
2019-03-29T17:30:40.822Z,16.23
2019-03-29T17:35:46.664Z,15.57
2019-03-29T17:40:52.440Z,14.55
2019-03-29T17:45:59.485Z,13.95
2019-03-29T17:51:05.626Z,13.66
2019-03-29T17:56:11.788Z,13.23
2019-03-29T18:01:18.277Z,12.78
2019-03-29T18:06:24.416Z,12.62
2019-03-29T18:11:30.196Z,12.35
2019-03-29T18:16:36.321Z,12.00
2019-03-29T18:21:42.092Z,11.79
2019-03-29T18:26:47.978Z,11.55
2019-03-29T18:31:54.353Z,11.50
2019-03-29T18:37:02.810Z,11.38
2019-03-29T18:42:08.629Z,10.78
2019-03-29T18:47:14.528Z,10.48
2019-03-29T18:52:21.452Z,10.50
2019-03-29T18:57:27.290Z,10.41
2019-03-29T19:02:33.074Z,10.24
2019-03-29T19:07:39.302Z,10.18
2019-03-29T19:12:45.231Z,10.11
2019-03-29T19:17:51.078Z,9.93
2019-03-29T19:22:57.456Z,9.67
2019-03-29T19:28:03.705Z,9.53
2019-03-29T19:33:10.907Z,9.42
2019-03-29T19:38:16.738Z,9.27
2019-03-29T19:43:22.541Z,9.12
2019-03-29T19:48:28.720Z,9.03
2019-03-29T19:53:35.611Z,8.92
2019-03-29T19:58:41.788Z,8.87
2019-03-29T20:03:48.063Z,8.86
2019-03-29T20:08:54.625Z,8.81
2019-03-29T20:14:00.760Z,8.78
2019-03-29T20:19:06.506Z,8.73
2019-03-29T20:24:12.307Z,8.70
2019-03-29T20:29:18.032Z,8.67
2019-03-29T20:34:24.059Z,8.67
2019-03-29T20:39:29.877Z,8.65
2019-03-29T20:44:35.708Z,8.63
2019-03-29T20:49:43.026Z,8.58
2019-03-29T20:54:48.741Z,8.60
2019-03-29T20:59:54.591Z,8.61
2019-03-29T21:05:00.907Z,8.57
2019-03-29T21:10:08.151Z,8.56
2019-03-29T21:15:14.399Z,8.60
2019-03-29T21:20:20.311Z,8.50
2019-03-29T21:25:26.832Z,8.30
2019-03-29T21:30:32.602Z,8.09
2019-03-29T21:35:38.370Z,7.99
2019-03-29T21:40:44.649Z,8.06
2019-03-29T21:45:50.600Z,8.09
2019-03-29T21:50:56.457Z,7.95
2019-03-29T21:56:03.486Z,7.64
2019-03-29T22:01:10.352Z,7.63
2019-03-29T22:06:17.535Z,7.77
2019-03-29T22:11:23.495Z,7.87
2019-03-29T22:16:29.719Z,7.85
2019-03-29T22:21:35.902Z,7.78
2019-03-29T22:26:41.610Z,7.69
2019-03-29T22:31:48.178Z,7.62
2019-03-29T22:36:54.155Z,7.47
2019-03-29T22:42:00.963Z,7.38
2019-03-29T22:47:06.850Z,7.26
2019-03-29T22:52:12.670Z,7.14
2019-03-29T22:57:18.562Z,6.96
2019-03-29T23:02:25.357Z,7.04
2019-03-29T23:07:31.048Z,7.06
2019-03-29T23:12:36.871Z,7.04
2019-03-29T23:17:42.810Z,7.02
2019-03-29T23:22:48.798Z,7.09
2019-03-29T23:27:55.936Z,7.14
2019-03-29T23:33:02.350Z,7.12
2019-03-29T23:38:08.055Z,7.15
2019-03-29T23:43:14.934Z,7.21
2019-03-29T23:48:20.625Z,7.24
2019-03-29T23:53:26.334Z,7.27
2019-03-29T23:58:32.399Z,7.24
